Aérodrome :
LOGIN :

S'inscrire | Disclaimer

   EN    FR    IT 

 










Légende :    VFR   VFR Marginal   IFR   IFR Intensif   IFR Très Intensif
Visi : 
Plafond : 
>= 8 km
>= 3000ft
5 à 8 km
1000 à 3000 ft
1500m à 5 km
500 à 1000 ft
800 à 1500m
200 à 500 ft
< 800m
< 200 ft
Symboles :   Orages  Brouillard  Fortes neiges  Fortes précipitations  Vent > 20 kt
SIGMETs :   Divers  Orages  Givrage  Turbulence  Onde Orograph.  Cendres Volcan.






- Altitude de l'aérodrome : 1516 ft
- Code IATA : AGB


EDMA - Augsburg

DERNIER METAR :
  • 142050Z AUTO 08007KT 060V120 9999 // SCT240/// 02/00 Q0999

METARs EXPIRÉS :
  • 142020Z AUTO 07006KT 9999 // SCT240/// 02/00 Q1000
  • 141950Z 08006KT 9999 FEW009 02/00 Q1000
  • 141920Z 09007KT 9999 NSC 02/01 Q1000
  • 141850Z 09005KT 060V120 9999 NSC 02/01 Q1000
  • 141820Z 07005KT 040V100 9999 FEW009 02/01 Q1000

TAF TAF EDMA
Valide du 14 à 18h jusqu'au 15 à 03h UTC


141700Z 1418/1503 09006KT CAVOK



MET'MAP, la Météo Aéronautique d'un coup d'oeil ! - Copyright ORBIFLY Décembre 2007 - Disclaimer

ORBIFLY MET'MAP TEAM :

Programmation & Développement : Alexandra Zaïnal
Conception & Développement : Baudouin d'Aumeries
Co-Programmation & Développement : Marc-Olivier Méhu
Soutien technique & logistique : Manuel Goepfert

Contact : metmap@orbifly.com




SOURCES & CREDITS :

   NOAA